Sultan Abdul Halim Airport Alor Satar MY
ICAO: WMKA
IATA:
Category: Medium
Scheduled Services:

Elevation: 15 ft
TransAlt. 11000 ft.

Airport Communications:
ALOR STAR APP:122.3
ALOR STAR GND:121.6
ALOR STAR TWR:122.3

WMKA Zoom In..

Runways:

(A) RW 04 length 9006 ft width 148 ft
ILS 111.70 / hdg 43

(B) RW 22 length 9006 ft width 148 ft
---- / hdg 223

Location; WMKA
Day. 06 / Time. 22.00 Zulu
* QNH: 1008
* Temperature: 26° c. 78.8°f.
* Wind from: 000° Speed 00 kn.
Dewpoint: 25° c.
Visibility: 10 km or more.
Clouds: Few 3000 ft.

WMKA 062200Z 00000KT 9999 FEW030 26/25 Q1008


Wind - Calm.

 
 
jpsmedia worldairports.se 2020   terms of use